sensor_id;sensor_type;location;lat;lon;timestamp;P1;durP1;ratioP1;P2;durP2;ratioP2
19554;SDS011;9924;50.828;6.440;2022-09-12T00:01:08;16.15;;;8.82;;
19554;SDS011;9924;50.828;6.440;2022-09-12T00:03:44;11.70;;;8.50;;
19554;SDS011;9924;50.828;6.440;2022-09-12T00:06:15;17.73;;;8.48;;
19554;SDS011;9924;50.828;6.440;2022-09-12T00:08:44;10.98;;;8.00;;
19554;SDS011;9924;50.828;6.440;2022-09-12T00:11:10;14.07;;;9.20;;
19554;SDS011;9924;50.828;6.440;2022-09-12T00:13:37;12.63;;;8.57;;
19554;SDS011;9924;50.828;6.440;2022-09-12T00:16:04;13.60;;;8.75;;
19554;SDS011;9924;50.828;6.440;2022-09-12T00:18:32;12.00;;;8.90;;
19554;SDS011;9924;50.828;6.440;2022-09-12T00:21:00;15.82;;;9.02;;
19554;SDS011;9924;50.828;6.440;2022-09-12T00:23:28;13.82;;;8.90;;
19554;SDS011;9924;50.828;6.440;2022-09-12T00:25:55;16.17;;;10.00;;
19554;SDS011;9924;50.828;6.440;2022-09-12T00:28:21;14.02;;;9.65;;
19554;SDS011;9924;50.828;6.440;2022-09-12T00:30:47;13.63;;;8.80;;
19554;SDS011;9924;50.828;6.440;2022-09-12T00:33:14;14.27;;;9.30;;
19554;SDS011;9924;50.828;6.440;2022-09-12T00:35:42;17.60;;;9.55;;
19554;SDS011;9924;50.828;6.440;2022-09-12T00:38:09;11.73;;;8.27;;
19554;SDS011;9924;50.828;6.440;2022-09-12T00:40:36;14.73;;;9.15;;
19554;SDS011;9924;50.828;6.440;2022-09-12T00:43:02;16.25;;;8.88;;
19554;SDS011;9924;50.828;6.440;2022-09-12T00:45:28;22.02;;;9.02;;
19554;SDS011;9924;50.828;6.440;2022-09-12T00:47:55;15.55;;;9.80;;
19554;SDS011;9924;50.828;6.440;2022-09-12T00:50:24;14.13;;;9.85;;
19554;SDS011;9924;50.828;6.440;2022-09-12T00:52:51;16.20;;;10.30;;
19554;SDS011;9924;50.828;6.440;2022-09-12T00:55:26;14.30;;;10.32;;
19554;SDS011;9924;50.828;6.440;2022-09-12T00:58:02;16.20;;;10.18;;
19554;SDS011;9924;50.828;6.440;2022-09-12T01:00:31;15.52;;;10.35;;
19554;SDS011;9924;50.828;6.440;2022-09-12T01:03:01;14.98;;;10.38;;
19554;SDS011;9924;50.828;6.440;2022-09-12T01:05:33;18.95;;;11.32;;
19554;SDS011;9924;50.828;6.440;2022-09-12T01:08:01;18.30;;;10.80;;
19554;SDS011;9924;50.828;6.440;2022-09-12T01:10:28;18.67;;;11.73;;
19554;SDS011;9924;50.828;6.440;2022-09-12T01:12:55;18.15;;;10.93;;
19554;SDS011;9924;50.828;6.440;2022-09-12T01:15:21;15.82;;;10.68;;
19554;SDS011;9924;50.828;6.440;2022-09-12T01:20:39;17.80;;;11.95;;
19554;SDS011;9924;50.828;6.440;2022-09-12T01:32:18;20.17;;;12.82;;
19554;SDS011;9924;50.828;6.440;2022-09-12T01:37:51;18.90;;;12.65;;
19554;SDS011;9924;50.828;6.440;2022-09-12T01:40:32;21.65;;;13.02;;
19554;SDS011;9924;50.828;6.440;2022-09-12T01:43:33;19.48;;;12.18;;
19554;SDS011;9924;50.828;6.440;2022-09-12T01:46:09;19.83;;;13.52;;
19554;SDS011;9924;50.828;6.440;2022-09-12T01:51:58;21.30;;;13.15;;
19554;SDS011;9924;50.828;6.440;2022-09-12T01:57:00;24.92;;;14.43;;
19554;SDS011;9924;50.828;6.440;2022-09-12T01:59:32;21.05;;;12.93;;
19554;SDS011;9924;50.828;6.440;2022-09-12T02:02:02;21.38;;;14.00;;
19554;SDS011;9924;50.828;6.440;2022-09-12T02:04:36;21.05;;;14.10;;
19554;SDS011;9924;50.828;6.440;2022-09-12T02:07:10;25.48;;;14.40;;
19554;SDS011;9924;50.828;6.440;2022-09-12T02:10:00;21.63;;;13.55;;
19554;SDS011;9924;50.828;6.440;2022-09-12T02:12:38;21.80;;;13.77;;
19554;SDS011;9924;50.828;6.440;2022-09-12T02:15:22;25.00;;;15.27;;
19554;SDS011;9924;50.828;6.440;2022-09-12T02:17:51;23.00;;;15.57;;
19554;SDS011;9924;50.828;6.440;2022-09-12T02:20:24;22.00;;;14.48;;
19554;SDS011;9924;50.828;6.440;2022-09-12T02:22:53;25.45;;;15.00;;
19554;SDS011;9924;50.828;6.440;2022-09-12T02:25:21;24.50;;;15.55;;
19554;SDS011;9924;50.828;6.440;2022-09-12T02:27:52;23.00;;;14.75;;
19554;SDS011;9924;50.828;6.440;2022-09-12T02:30:42;23.02;;;14.85;;
19554;SDS011;9924;50.828;6.440;2022-09-12T02:33:21;22.65;;;14.20;;
19554;SDS011;9924;50.828;6.440;2022-09-12T02:36:01;24.10;;;14.73;;
19554;SDS011;9924;50.828;6.440;2022-09-12T02:38:42;22.77;;;15.07;;
19554;SDS011;9924;50.828;6.440;2022-09-12T02:41:11;27.10;;;15.75;;
19554;SDS011;9924;50.828;6.440;2022-09-12T02:43:40;29.67;;;15.35;;
19554;SDS011;9924;50.828;6.440;2022-09-12T02:46:06;28.42;;;15.82;;
19554;SDS011;9924;50.828;6.440;2022-09-12T02:48:35;26.60;;;15.13;;
19554;SDS011;9924;50.828;6.440;2022-09-12T02:51:05;25.00;;;15.15;;
19554;SDS011;9924;50.828;6.440;2022-09-12T02:53:31;26.60;;;15.90;;
19554;SDS011;9924;50.828;6.440;2022-09-12T02:55:57;23.95;;;14.57;;
19554;SDS011;9924;50.828;6.440;2022-09-12T02:58:24;22.45;;;14.20;;
19554;SDS011;9924;50.828;6.440;2022-09-12T03:01:02;27.17;;;15.18;;
19554;SDS011;9924;50.828;6.440;2022-09-12T03:03:52;26.27;;;15.65;;
19554;SDS011;9924;50.828;6.440;2022-09-12T03:06:34;21.35;;;13.70;;
19554;SDS011;9924;50.828;6.440;2022-09-12T03:12:15;24.95;;;15.35;;
19554;SDS011;9924;50.828;6.440;2022-09-12T03:23:12;25.40;;;14.82;;
19554;SDS011;9924;50.828;6.440;2022-09-12T03:26:11;28.30;;;14.40;;
19554;SDS011;9924;50.828;6.440;2022-09-12T03:28:42;27.90;;;14.40;;
19554;SDS011;9924;50.828;6.440;2022-09-12T03:31:14;28.88;;;15.50;;
19554;SDS011;9924;50.828;6.440;2022-09-12T03:33:42;22.00;;;13.57;;
19554;SDS011;9924;50.828;6.440;2022-09-12T03:36:24;20.55;;;14.02;;
19554;SDS011;9924;50.828;6.440;2022-09-12T03:38:51;24.08;;;14.23;;
19554;SDS011;9924;50.828;6.440;2022-09-12T03:41:17;22.15;;;13.60;;
19554;SDS011;9924;50.828;6.440;2022-09-12T03:43:43;24.60;;;14.15;;
19554;SDS011;9924;50.828;6.440;2022-09-12T03:46:10;27.17;;;15.07;;
19554;SDS011;9924;50.828;6.440;2022-09-12T03:48:36;23.30;;;14.68;;
19554;SDS011;9924;50.828;6.440;2022-09-12T03:51:02;25.15;;;15.35;;
19554;SDS011;9924;50.828;6.440;2022-09-12T03:53:29;30.27;;;16.40;;
19554;SDS011;9924;50.828;6.440;2022-09-12T03:55:55;27.23;;;16.10;;
19554;SDS011;9924;50.828;6.440;2022-09-12T03:58:21;27.58;;;16.35;;
19554;SDS011;9924;50.828;6.440;2022-09-12T04:00:47;29.35;;;17.58;;
19554;SDS011;9924;50.828;6.440;2022-09-12T04:03:13;26.58;;;16.10;;
19554;SDS011;9924;50.828;6.440;2022-09-12T04:05:39;29.88;;;16.85;;
19554;SDS011;9924;50.828;6.440;2022-09-12T04:08:05;31.20;;;17.42;;
19554;SDS011;9924;50.828;6.440;2022-09-12T04:10:30;26.77;;;16.23;;
19554;SDS011;9924;50.828;6.440;2022-09-12T04:12:56;27.77;;;17.17;;
19554;SDS011;9924;50.828;6.440;2022-09-12T04:15:22;32.13;;;17.10;;
19554;SDS011;9924;50.828;6.440;2022-09-12T04:17:48;27.55;;;16.60;;
19554;SDS011;9924;50.828;6.440;2022-09-12T04:20:14;25.75;;;16.50;;
19554;SDS011;9924;50.828;6.440;2022-09-12T04:22:39;25.73;;;15.93;;
19554;SDS011;9924;50.828;6.440;2022-09-12T04:25:05;27.15;;;16.73;;
19554;SDS011;9924;50.828;6.440;2022-09-12T04:27:31;28.25;;;16.67;;
19554;SDS011;9924;50.828;6.440;2022-09-12T04:29:57;32.40;;;17.42;;
19554;SDS011;9924;50.828;6.440;2022-09-12T04:32:25;28.33;;;17.25;;
19554;SDS011;9924;50.828;6.440;2022-09-12T04:34:51;29.15;;;16.88;;
19554;SDS011;9924;50.828;6.440;2022-09-12T04:37:20;27.55;;;16.67;;
19554;SDS011;9924;50.828;6.440;2022-09-12T04:39:47;28.58;;;16.73;;
19554;SDS011;9924;50.828;6.440;2022-09-12T04:42:13;29.90;;;17.58;;
19554;SDS011;9924;50.828;6.440;2022-09-12T04:44:40;30.52;;;16.48;;
19554;SDS011;9924;50.828;6.440;2022-09-12T04:47:05;31.17;;;17.33;;
19554;SDS011;9924;50.828;6.440;2022-09-12T04:49:31;29.23;;;17.75;;
19554;SDS011;9924;50.828;6.440;2022-09-12T04:51:57;29.88;;;16.80;;
19554;SDS011;9924;50.828;6.440;2022-09-12T04:54:23;24.52;;;15.95;;
19554;SDS011;9924;50.828;6.440;2022-09-12T04:56:50;30.90;;;15.95;;
19554;SDS011;9924;50.828;6.440;2022-09-12T04:59:17;30.05;;;16.70;;
19554;SDS011;9924;50.828;6.440;2022-09-12T05:01:44;29.80;;;17.25;;
19554;SDS011;9924;50.828;6.440;2022-09-12T05:04:10;26.13;;;16.05;;
19554;SDS011;9924;50.828;6.440;2022-09-12T05:06:37;27.48;;;14.82;;
19554;SDS011;9924;50.828;6.440;2022-09-12T05:09:05;26.02;;;16.42;;
19554;SDS011;9924;50.828;6.440;2022-09-12T05:11:36;27.77;;;15.25;;
19554;SDS011;9924;50.828;6.440;2022-09-12T05:14:03;22.92;;;14.27;;
19554;SDS011;9924;50.828;6.440;2022-09-12T05:16:29;21.00;;;13.68;;
19554;SDS011;9924;50.828;6.440;2022-09-12T05:18:57;22.33;;;13.48;;
19554;SDS011;9924;50.828;6.440;2022-09-12T05:21:23;23.95;;;14.30;;
19554;SDS011;9924;50.828;6.440;2022-09-12T05:23:54;23.88;;;13.80;;
19554;SDS011;9924;50.828;6.440;2022-09-12T05:26:24;22.42;;;14.30;;
19554;SDS011;9924;50.828;6.440;2022-09-12T05:28:50;25.75;;;13.82;;
19554;SDS011;9924;50.828;6.440;2022-09-12T05:31:19;21.73;;;13.98;;
19554;SDS011;9924;50.828;6.440;2022-09-12T05:33:46;20.20;;;12.93;;
19554;SDS011;9924;50.828;6.440;2022-09-12T05:36:14;20.75;;;12.45;;
19554;SDS011;9924;50.828;6.440;2022-09-12T05:38:42;18.83;;;12.43;;
19554;SDS011;9924;50.828;6.440;2022-09-12T05:43:41;21.05;;;12.18;;
19554;SDS011;9924;50.828;6.440;2022-09-12T05:46:09;27.17;;;14.20;;
19554;SDS011;9924;50.828;6.440;2022-09-12T05:48:40;24.95;;;14.02;;
19554;SDS011;9924;50.828;6.440;2022-09-12T05:51:08;23.15;;;14.43;;
19554;SDS011;9924;50.828;6.440;2022-09-12T05:53:45;28.67;;;16.45;;
19554;SDS011;9924;50.828;6.440;2022-09-12T05:56:13;24.00;;;14.27;;
19554;SDS011;9924;50.828;6.440;2022-09-12T05:58:42;23.17;;;14.00;;
19554;SDS011;9924;50.828;6.440;2022-09-12T06:01:11;23.70;;;14.25;;
19554;SDS011;9924;50.828;6.440;2022-09-12T06:03:43;25.45;;;14.65;;
19554;SDS011;9924;50.828;6.440;2022-09-12T06:06:10;24.45;;;14.30;;
19554;SDS011;9924;50.828;6.440;2022-09-12T06:08:38;25.48;;;16.10;;
19554;SDS011;9924;50.828;6.440;2022-09-12T06:11:05;27.27;;;15.80;;
19554;SDS011;9924;50.828;6.440;2022-09-12T06:13:35;27.08;;;15.77;;
19554;SDS011;9924;50.828;6.440;2022-09-12T06:16:12;25.15;;;15.18;;
19554;SDS011;9924;50.828;6.440;2022-09-12T06:18:45;25.85;;;16.73;;
19554;SDS011;9924;50.828;6.440;2022-09-12T06:21:15;27.48;;;16.83;;
19554;SDS011;9924;50.828;6.440;2022-09-12T06:23:41;22.92;;;15.55;;
19554;SDS011;9924;50.828;6.440;2022-09-12T06:26:09;28.77;;;15.77;;
19554;SDS011;9924;50.828;6.440;2022-09-12T06:28:36;26.55;;;15.57;;
19554;SDS011;9924;50.828;6.440;2022-09-12T06:31:04;27.80;;;16.27;;
19554;SDS011;9924;50.828;6.440;2022-09-12T06:33:35;28.02;;;17.02;;
19554;SDS011;9924;50.828;6.440;2022-09-12T06:36:21;27.02;;;16.80;;
19554;SDS011;9924;50.828;6.440;2022-09-12T06:38:55;27.15;;;16.35;;
19554;SDS011;9924;50.828;6.440;2022-09-12T06:41:23;25.17;;;15.02;;
19554;SDS011;9924;50.828;6.440;2022-09-12T06:43:49;25.15;;;15.15;;
19554;SDS011;9924;50.828;6.440;2022-09-12T06:46:15;27.02;;;15.55;;
19554;SDS011;9924;50.828;6.440;2022-09-12T06:48:41;28.30;;;17.00;;
19554;SDS011;9924;50.828;6.440;2022-09-12T06:51:13;27.65;;;16.90;;
19554;SDS011;9924;50.828;6.440;2022-09-12T06:53:40;22.02;;;14.48;;
19554;SDS011;9924;50.828;6.440;2022-09-12T06:56:11;28.33;;;14.98;;
19554;SDS011;9924;50.828;6.440;2022-09-12T06:58:40;22.80;;;14.57;;
19554;SDS011;9924;50.828;6.440;2022-09-12T07:01:08;21.35;;;13.48;;
19554;SDS011;9924;50.828;6.440;2022-09-12T07:03:39;23.98;;;14.82;;
19554;SDS011;9924;50.828;6.440;2022-09-12T07:06:06;22.73;;;15.23;;
19554;SDS011;9924;50.828;6.440;2022-09-12T07:08:37;21.80;;;14.75;;
19554;SDS011;9924;50.828;6.440;2022-09-12T07:11:07;25.55;;;13.88;;
19554;SDS011;9924;50.828;6.440;2022-09-12T07:13:33;21.08;;;13.68;;
19554;SDS011;9924;50.828;6.440;2022-09-12T07:16:02;20.85;;;13.73;;
19554;SDS011;9924;50.828;6.440;2022-09-12T07:18:29;19.83;;;13.23;;
19554;SDS011;9924;50.828;6.440;2022-09-12T07:20:58;18.15;;;12.82;;
19554;SDS011;9924;50.828;6.440;2022-09-12T07:23:27;17.08;;;12.13;;
19554;SDS011;9924;50.828;6.440;2022-09-12T07:25:54;19.05;;;12.57;;
19554;SDS011;9924;50.828;6.440;2022-09-12T07:28:21;17.63;;;12.73;;
19554;SDS011;9924;50.828;6.440;2022-09-12T07:30:49;21.25;;;13.02;;
19554;SDS011;9924;50.828;6.440;2022-09-12T07:33:17;17.05;;;12.80;;
19554;SDS011;9924;50.828;6.440;2022-09-12T07:35:47;19.27;;;13.35;;
19554;SDS011;9924;50.828;6.440;2022-09-12T07:38:13;18.75;;;13.50;;
19554;SDS011;9924;50.828;6.440;2022-09-12T07:40:40;18.80;;;12.48;;
19554;SDS011;9924;50.828;6.440;2022-09-12T07:43:06;19.52;;;14.63;;
19554;SDS011;9924;50.828;6.440;2022-09-12T07:45:35;21.45;;;13.77;;
19554;SDS011;9924;50.828;6.440;2022-09-12T07:48:06;18.75;;;12.93;;
19554;SDS011;9924;50.828;6.440;2022-09-12T07:50:32;17.65;;;12.75;;
19554;SDS011;9924;50.828;6.440;2022-09-12T07:52:58;19.42;;;13.13;;
19554;SDS011;9924;50.828;6.440;2022-09-12T07:55:24;20.63;;;13.60;;
19554;SDS011;9924;50.828;6.440;2022-09-12T07:57:50;16.95;;;12.07;;
19554;SDS011;9924;50.828;6.440;2022-09-12T08:00:18;16.15;;;11.43;;
19554;SDS011;9924;50.828;6.440;2022-09-12T08:03:00;15.35;;;10.32;;
19554;SDS011;9924;50.828;6.440;2022-09-12T08:05:31;16.60;;;11.60;;
19554;SDS011;9924;50.828;6.440;2022-09-12T08:07:56;16.48;;;12.50;;
19554;SDS011;9924;50.828;6.440;2022-09-12T08:10:22;23.25;;;14.65;;
19554;SDS011;9924;50.828;6.440;2022-09-12T08:12:48;26.10;;;15.35;;
19554;SDS011;9924;50.828;6.440;2022-09-12T08:15:14;19.27;;;13.90;;
19554;SDS011;9924;50.828;6.440;2022-09-12T08:17:41;18.60;;;12.18;;
19554;SDS011;9924;50.828;6.440;2022-09-12T08:20:07;17.23;;;11.90;;
19554;SDS011;9924;50.828;6.440;2022-09-12T08:22:33;14.65;;;10.30;;
19554;SDS011;9924;50.828;6.440;2022-09-12T08:24:59;13.57;;;10.07;;
19554;SDS011;9924;50.828;6.440;2022-09-12T08:27:24;17.02;;;9.38;;
19554;SDS011;9924;50.828;6.440;2022-09-12T08:29:50;13.10;;;8.60;;
19554;SDS011;9924;50.828;6.440;2022-09-12T08:32:19;11.43;;;8.82;;
19554;SDS011;9924;50.828;6.440;2022-09-12T08:34:48;13.60;;;9.35;;
19554;SDS011;9924;50.828;6.440;2022-09-12T08:37:13;13.32;;;8.63;;
19554;SDS011;9924;50.828;6.440;2022-09-12T08:39:39;11.80;;;8.35;;
19554;SDS011;9924;50.828;6.440;2022-09-12T08:42:05;17.58;;;9.07;;
19554;SDS011;9924;50.828;6.440;2022-09-12T08:44:43;11.82;;;7.65;;
19554;SDS011;9924;50.828;6.440;2022-09-12T08:47:30;13.13;;;9.30;;
19554;SDS011;9924;50.828;6.440;2022-09-12T08:52:36;12.95;;;8.43;;
19554;SDS011;9924;50.828;6.440;2022-09-12T08:55:27;12.32;;;7.40;;
19554;SDS011;9924;50.828;6.440;2022-09-12T08:58:12;10.40;;;8.10;;
19554;SDS011;9924;50.828;6.440;2022-09-12T09:03:55;10.02;;;6.68;;
19554;SDS011;9924;50.828;6.440;2022-09-12T09:09:30;13.00;;;6.60;;
19554;SDS011;9924;50.828;6.440;2022-09-12T09:14:57;7.85;;;6.45;;
19554;SDS011;9924;50.828;6.440;2022-09-12T09:17:50;7.25;;;6.32;;
19554;SDS011;9924;50.828;6.440;2022-09-12T09:20:29;9.38;;;6.70;;
19554;SDS011;9924;50.828;6.440;2022-09-12T09:23:21;10.65;;;6.65;;
19554;SDS011;9924;50.828;6.440;2022-09-12T09:26:03;10.60;;;5.88;;
19554;SDS011;9924;50.828;6.440;2022-09-12T09:31:22;5.38;;;3.63;;
19554;SDS011;9924;50.828;6.440;2022-09-12T09:33:50;7.22;;;3.42;;
19554;SDS011;9924;50.828;6.440;2022-09-12T09:36:21;5.60;;;4.10;;
19554;SDS011;9924;50.828;6.440;2022-09-12T09:44:33;2.85;;;2.58;;
19554;SDS011;9924;50.828;6.440;2022-09-12T09:47:00;2.70;;;2.40;;
19554;SDS011;9924;50.828;6.440;2022-09-12T09:49:27;2.78;;;2.58;;
19554;SDS011;9924;50.828;6.440;2022-09-12T09:51:55;5.68;;;2.50;;
19554;SDS011;9924;50.828;6.440;2022-09-12T09:54:39;2.70;;;2.22;;
19554;SDS011;9924;50.828;6.440;2022-09-12T10:02:58;7.13;;;5.13;;
19554;SDS011;9924;50.828;6.440;2022-09-12T10:05:29;4.95;;;3.00;;
19554;SDS011;9924;50.828;6.440;2022-09-12T10:07:57;2.95;;;1.98;;
19554;SDS011;9924;50.828;6.440;2022-09-12T10:10:23;6.43;;;2.17;;
19554;SDS011;9924;50.828;6.440;2022-09-12T10:12:49;2.10;;;2.00;;
19554;SDS011;9924;50.828;6.440;2022-09-12T10:15:29;3.13;;;1.90;;
19554;SDS011;9924;50.828;6.440;2022-09-12T10:17:55;3.45;;;2.13;;
19554;SDS011;9924;50.828;6.440;2022-09-12T10:26:02;3.30;;;3.00;;
19554;SDS011;9924;50.828;6.440;2022-09-12T10:28:36;2.83;;;2.30;;
19554;SDS011;9924;50.828;6.440;2022-09-12T10:31:04;5.90;;;4.00;;
19554;SDS011;9924;50.828;6.440;2022-09-12T10:33:32;5.97;;;4.15;;
19554;SDS011;9924;50.828;6.440;2022-09-12T10:36:07;4.68;;;3.92;;
19554;SDS011;9924;50.828;6.440;2022-09-12T10:38:33;5.22;;;3.22;;
19554;SDS011;9924;50.828;6.440;2022-09-12T10:41:02;3.78;;;2.97;;
19554;SDS011;9924;50.828;6.440;2022-09-12T10:48:42;3.05;;;2.75;;
19554;SDS011;9924;50.828;6.440;2022-09-12T10:51:35;4.25;;;2.90;;
19554;SDS011;9924;50.828;6.440;2022-09-12T10:53:58;5.07;;;3.13;;
19554;SDS011;9924;50.828;6.440;2022-09-12T11:01:55;2.97;;;2.45;;
19554;SDS011;9924;50.828;6.440;2022-09-12T11:15:56;2.40;;;2.20;;
19554;SDS011;9924;50.828;6.440;2022-09-12T11:21:42;2.42;;;2.00;;
19554;SDS011;9924;50.828;6.440;2022-09-12T11:26:54;2.33;;;2.08;;
19554;SDS011;9924;50.828;6.440;2022-09-12T11:29:29;3.10;;;2.00;;
19554;SDS011;9924;50.828;6.440;2022-09-12T11:35:22;2.42;;;1.83;;
19554;SDS011;9924;50.828;6.440;2022-09-12T11:54:17;3.25;;;1.40;;
19554;SDS011;9924;50.828;6.440;2022-09-12T11:56:49;2.08;;;1.52;;
19554;SDS011;9924;50.828;6.440;2022-09-12T12:01:55;2.00;;;1.33;;
19554;SDS011;9924;50.828;6.440;2022-09-12T12:04:40;1.23;;;0.95;;
19554;SDS011;9924;50.828;6.440;2022-09-12T12:07:17;1.58;;;1.10;;
19554;SDS011;9924;50.828;6.440;2022-09-12T12:09:50;1.10;;;1.00;;
19554;SDS011;9924;50.828;6.440;2022-09-12T12:12:21;1.65;;;1.10;;
19554;SDS011;9924;50.828;6.440;2022-09-12T12:14:50;1.30;;;1.20;;
19554;SDS011;9924;50.828;6.440;2022-09-12T12:17:19;2.25;;;1.27;;
19554;SDS011;9924;50.828;6.440;2022-09-12T12:19:58;1.35;;;1.10;;
19554;SDS011;9924;50.828;6.440;2022-09-12T12:22:27;1.20;;;1.10;;
19554;SDS011;9924;50.828;6.440;2022-09-12T12:38:55;2.67;;;1.40;;
19554;SDS011;9924;50.828;6.440;2022-09-12T12:43:48;1.25;;;1.02;;
19554;SDS011;9924;50.828;6.440;2022-09-12T12:46:19;1.77;;;1.10;;
19554;SDS011;9924;50.828;6.440;2022-09-12T12:53:53;1.58;;;1.20;;
19554;SDS011;9924;50.828;6.440;2022-09-12T12:56:32;1.33;;;1.00;;
19554;SDS011;9924;50.828;6.440;2022-09-12T12:58:59;3.88;;;1.30;;
19554;SDS011;9924;50.828;6.440;2022-09-12T13:01:27;1.13;;;1.00;;
19554;SDS011;9924;50.828;6.440;2022-09-12T13:04:11;1.42;;;1.30;;
19554;SDS011;9924;50.828;6.440;2022-09-12T13:06:44;2.45;;;1.00;;
19554;SDS011;9924;50.828;6.440;2022-09-12T13:10:05;1.33;;;1.23;;
19554;SDS011;9924;50.828;6.440;2022-09-12T13:12:11;1.13;;;1.00;;
19554;SDS011;9924;50.828;6.440;2022-09-12T13:17:21;1.15;;;1.05;;
19554;SDS011;9924;50.828;6.440;2022-09-12T13:22:44;2.40;;;1.20;;
19554;SDS011;9924;50.828;6.440;2022-09-12T13:30:27;1.50;;;1.23;;
19554;SDS011;9924;50.828;6.440;2022-09-12T13:32:56;2.30;;;1.50;;
19554;SDS011;9924;50.828;6.440;2022-09-12T13:35:37;1.42;;;1.08;;
19554;SDS011;9924;50.828;6.440;2022-09-12T13:41:35;1.23;;;1.13;;
19554;SDS011;9924;50.828;6.440;2022-09-12T13:44:02;1.73;;;1.33;;
19554;SDS011;9924;50.828;6.440;2022-09-12T13:46:33;1.38;;;1.00;;
19554;SDS011;9924;50.828;6.440;2022-09-12T13:49:00;1.08;;;0.98;;
19554;SDS011;9924;50.828;6.440;2022-09-12T13:51:35;1.00;;;0.90;;
19554;SDS011;9924;50.828;6.440;2022-09-12T13:54:01;2.17;;;1.30;;
19554;SDS011;9924;50.828;6.440;2022-09-12T13:56:29;3.53;;;1.30;;
19554;SDS011;9924;50.828;6.440;2022-09-12T13:58:58;1.63;;;1.30;;
19554;SDS011;9924;50.828;6.440;2022-09-12T14:01:39;4.47;;;1.40;;
19554;SDS011;9924;50.828;6.440;2022-09-12T14:04:17;2.90;;;1.33;;
19554;SDS011;9924;50.828;6.440;2022-09-12T14:07:18;2.03;;;1.27;;
19554;SDS011;9924;50.828;6.440;2022-09-12T14:09:53;1.42;;;1.00;;
19554;SDS011;9924;50.828;6.440;2022-09-12T14:12:27;1.40;;;1.30;;
19554;SDS011;9924;50.828;6.440;2022-09-12T14:14:55;3.25;;;1.33;;
19554;SDS011;9924;50.828;6.440;2022-09-12T14:17:26;2.40;;;1.20;;
19554;SDS011;9924;50.828;6.440;2022-09-12T14:20:00;1.58;;;1.33;;
19554;SDS011;9924;50.828;6.440;2022-09-12T14:22:29;2.60;;;1.10;;
19554;SDS011;9924;50.828;6.440;2022-09-12T14:24:56;1.75;;;1.58;;
19554;SDS011;9924;50.828;6.440;2022-09-12T14:27:24;1.70;;;1.50;;
19554;SDS011;9924;50.828;6.440;2022-09-12T14:30:04;2.13;;;1.40;;
19554;SDS011;9924;50.828;6.440;2022-09-12T14:32:38;3.53;;;1.30;;
19554;SDS011;9924;50.828;6.440;2022-09-12T14:37:30;2.28;;;1.45;;
19554;SDS011;9924;50.828;6.440;2022-09-12T14:39:56;3.05;;;1.10;;
19554;SDS011;9924;50.828;6.440;2022-09-12T14:42:23;2.42;;;1.23;;
19554;SDS011;9924;50.828;6.440;2022-09-12T14:44:56;2.78;;;1.10;;
19554;SDS011;9924;50.828;6.440;2022-09-12T14:47:31;3.95;;;1.52;;
19554;SDS011;9924;50.828;6.440;2022-09-12T14:50:02;3.13;;;1.42;;
19554;SDS011;9924;50.828;6.440;2022-09-12T14:52:29;1.88;;;1.40;;
19554;SDS011;9924;50.828;6.440;2022-09-12T14:55:19;1.95;;;1.23;;
19554;SDS011;9924;50.828;6.440;2022-09-12T15:00:50;2.17;;;1.30;;
19554;SDS011;9924;50.828;6.440;2022-09-12T15:06:00;6.65;;;1.50;;
19554;SDS011;9924;50.828;6.440;2022-09-12T15:08:29;6.60;;;2.10;;
19554;SDS011;9924;50.828;6.440;2022-09-12T15:10:56;6.25;;;1.70;;
19554;SDS011;9924;50.828;6.440;2022-09-12T15:13:25;7.93;;;1.65;;
19554;SDS011;9924;50.828;6.440;2022-09-12T15:18:20;3.15;;;1.30;;
19554;SDS011;9924;50.828;6.440;2022-09-12T15:20:49;3.58;;;1.33;;
19554;SDS011;9924;50.828;6.440;2022-09-12T15:23:26;1.95;;;1.30;;
19554;SDS011;9924;50.828;6.440;2022-09-12T15:25:59;3.75;;;1.60;;
19554;SDS011;9924;50.828;6.440;2022-09-12T15:28:24;3.80;;;1.38;;
19554;SDS011;9924;50.828;6.440;2022-09-12T15:30:51;2.03;;;1.23;;
19554;SDS011;9924;50.828;6.440;2022-09-12T15:33:20;3.13;;;1.73;;
19554;SDS011;9924;50.828;6.440;2022-09-12T15:35:48;5.32;;;1.40;;
19554;SDS011;9924;50.828;6.440;2022-09-12T15:38:15;1.92;;;1.38;;
19554;SDS011;9924;50.828;6.440;2022-09-12T15:40:40;3.35;;;1.70;;
19554;SDS011;9924;50.828;6.440;2022-09-12T15:43:08;2.80;;;1.50;;
19554;SDS011;9924;50.828;6.440;2022-09-12T15:45:36;4.43;;;1.50;;
19554;SDS011;9924;50.828;6.440;2022-09-12T15:48:02;3.72;;;1.40;;
